<?xml version="1.0" encoding="UTF-8" standalone="no" ?>
<gpx xmlns="http://www.topografix.com/GPX/1/1" xmlns:xsi="http://www.w3.org/2001/XMLSchema-instance" xsi:schemaLocation="http://www.topografix.com/GPX/1/1 http://www.topografix.com/GPX/1/1/gpx.xsd" version="1.1" creator="VisuGPX - https://www.visugpx.com">
  <metadata>
    <name>Le bouillon - Col de la Luères</name>
    <desc><![CDATA[Parcours du bouillon au col de la Luère]]></desc>
  </metadata>
  <trk>
    <name><![CDATA[2021-04-08 10-27-12]]></name>
    <trkseg>
      <trkpt lat="45.76212" lon="4.63196">
        <ele>704.78</ele>
        <time>2021-04-08T08:14:35Z</time>
      </trkpt>
      <trkpt lat="45.76212" lon="4.63196">
        <ele>704.78</ele>
        <time>2021-04-08T08:14:36Z</time>
      </trkpt>
      <trkpt lat="45.76214" lon="4.63196">
        <ele>705.75</ele>
        <time>2021-04-08T08:14:57Z</time>
      </trkpt>
      <trkpt lat="45.76213" lon="4.63201">
        <ele>705.75</ele>
        <time>2021-04-08T08:14:59Z</time>
      </trkpt>
      <trkpt lat="45.76212" lon="4.63213">
        <ele>705.75</ele>
        <time>2021-04-08T08:15:01Z</time>
      </trkpt>
      <trkpt lat="45.76212" lon="4.63225">
        <ele>705.75</ele>
        <time>2021-04-08T08:15:03Z</time>
      </trkpt>
      <trkpt lat="45.76212" lon="4.63232">
        <ele>705.26</ele>
        <time>2021-04-08T08:15:04Z</time>
      </trkpt>
      <trkpt lat="45.76214" lon="4.63238">
        <ele>705.26</ele>
        <time>2021-04-08T08:15:05Z</time>
      </trkpt>
      <trkpt lat="45.76215" lon="4.63244">
        <ele>705.26</ele>
        <time>2021-04-08T08:15:06Z</time>
      </trkpt>
      <trkpt lat="45.76216" lon="4.63251">
        <ele>705.26</ele>
        <time>2021-04-08T08:15:07Z</time>
      </trkpt>
      <trkpt lat="45.76218" lon="4.63256">
        <ele>705.26</ele>
        <time>2021-04-08T08:15:08Z</time>
      </trkpt>
      <trkpt lat="45.7622" lon="4.63259">
        <ele>704.78</ele>
        <time>2021-04-08T08:15:09Z</time>
      </trkpt>
      <trkpt lat="45.76221" lon="4.63264">
        <ele>704.78</ele>
        <time>2021-04-08T08:15:10Z</time>
      </trkpt>
      <trkpt lat="45.76222" lon="4.63269">
        <ele>704.3</ele>
        <time>2021-04-08T08:15:11Z</time>
      </trkpt>
      <trkpt lat="45.76224" lon="4.6328">
        <ele>703.82</ele>
        <time>2021-04-08T08:15:13Z</time>
      </trkpt>
      <trkpt lat="45.76224" lon="4.63285">
        <ele>703.82</ele>
        <time>2021-04-08T08:15:14Z</time>
      </trkpt>
      <trkpt lat="45.76225" lon="4.6329">
        <ele>703.34</ele>
        <time>2021-04-08T08:15:15Z</time>
      </trkpt>
      <trkpt lat="45.76225" lon="4.63296">
        <ele>702.86</ele>
        <time>2021-04-08T08:15:19Z</time>
      </trkpt>
      <trkpt lat="45.76223" lon="4.63314">
        <ele>702.38</ele>
        <time>2021-04-08T08:15:23Z</time>
      </trkpt>
      <trkpt lat="45.76222" lon="4.63319">
        <ele>702.38</ele>
        <time>2021-04-08T08:15:24Z</time>
      </trkpt>
      <trkpt lat="45.76221" lon="4.63326">
        <ele>702.38</ele>
        <time>2021-04-08T08:15:25Z</time>
      </trkpt>
      <trkpt lat="45.76221" lon="4.63334">
        <ele>702.38</ele>
        <time>2021-04-08T08:15:26Z</time>
      </trkpt>
      <trkpt lat="45.76221" lon="4.63342">
        <ele>701.9</ele>
        <time>2021-04-08T08:15:27Z</time>
      </trkpt>
      <trkpt lat="45.76219" lon="4.6339">
        <ele>700.46</ele>
        <time>2021-04-08T08:15:32Z</time>
      </trkpt>
      <trkpt lat="45.76218" lon="4.63401">
        <ele>700.46</ele>
        <time>2021-04-08T08:15:33Z</time>
      </trkpt>
      <trkpt lat="45.76214" lon="4.63435">
        <ele>697.57</ele>
        <time>2021-04-08T08:15:36Z</time>
      </trkpt>
      <trkpt lat="45.76214" lon="4.63447">
        <ele>696.13</ele>
        <time>2021-04-08T08:15:37Z</time>
      </trkpt>
      <trkpt lat="45.76212" lon="4.63485">
        <ele>692.77</ele>
        <time>2021-04-08T08:15:40Z</time>
      </trkpt>
      <trkpt lat="45.76215" lon="4.63507">
        <ele>690.84</ele>
        <time>2021-04-08T08:15:42Z</time>
      </trkpt>
      <trkpt lat="45.76217" lon="4.63518">
        <ele>689.4</ele>
        <time>2021-04-08T08:15:43Z</time>
      </trkpt>
      <trkpt lat="45.76221" lon="4.63538">
        <ele>685.56</ele>
        <time>2021-04-08T08:15:45Z</time>
      </trkpt>
      <trkpt lat="45.76222" lon="4.63547">
        <ele>684.6</ele>
        <time>2021-04-08T08:15:46Z</time>
      </trkpt>
      <trkpt lat="45.76229" lon="4.63574">
        <ele>681.71</ele>
        <time>2021-04-08T08:15:49Z</time>
      </trkpt>
      <trkpt lat="45.76229" lon="4.63583">
        <ele>681.23</ele>
        <time>2021-04-08T08:15:50Z</time>
      </trkpt>
      <trkpt lat="45.76229" lon="4.63592">
        <ele>680.75</ele>
        <time>2021-04-08T08:15:51Z</time>
      </trkpt>
      <trkpt lat="45.76228" lon="4.63604">
        <ele>679.79</ele>
        <time>2021-04-08T08:15:52Z</time>
      </trkpt>
      <trkpt lat="45.76228" lon="4.63614">
        <ele>679.31</ele>
        <time>2021-04-08T08:15:53Z</time>
      </trkpt>
      <trkpt lat="45.76228" lon="4.63623">
        <ele>678.83</ele>
        <time>2021-04-08T08:15:54Z</time>
      </trkpt>
      <trkpt lat="45.76228" lon="4.6363">
        <ele>678.83</ele>
        <time>2021-04-08T08:15:55Z</time>
      </trkpt>
      <trkpt lat="45.76234" lon="4.63709">
        <ele>674.5</ele>
        <time>2021-04-08T08:16:02Z</time>
      </trkpt>
      <trkpt lat="45.76237" lon="4.63735">
        <ele>671.14</ele>
        <time>2021-04-08T08:16:05Z</time>
      </trkpt>
      <trkpt lat="45.76243" lon="4.63765">
        <ele>667.29</ele>
        <time>2021-04-08T08:16:08Z</time>
      </trkpt>
      <trkpt lat="45.76246" lon="4.63773">
        <ele>663.93</ele>
        <time>2021-04-08T08:16:09Z</time>
      </trkpt>
      <trkpt lat="45.76249" lon="4.63781">
        <ele>662.01</ele>
        <time>2021-04-08T08:16:10Z</time>
      </trkpt>
      <trkpt lat="45.76252" lon="4.63793">
        <ele>660.56</ele>
        <time>2021-04-08T08:16:11Z</time>
      </trkpt>
      <trkpt lat="45.76262" lon="4.63824">
        <ele>656.72</ele>
        <time>2021-04-08T08:16:14Z</time>
      </trkpt>
      <trkpt lat="45.76267" lon="4.63841">
        <ele>653.83</ele>
        <time>2021-04-08T08:16:17Z</time>
      </trkpt>
      <trkpt lat="45.76267" lon="4.63844">
        <ele>653.35</ele>
        <time>2021-04-08T08:16:18Z</time>
      </trkpt>
      <trkpt lat="45.76267" lon="4.63845">
        <ele>652.39</ele>
        <time>2021-04-08T08:16:19Z</time>
      </trkpt>
      <trkpt lat="45.76265" lon="4.63845">
        <ele>647.59</ele>
        <time>2021-04-08T08:16:22Z</time>
      </trkpt>
      <trkpt lat="45.76267" lon="4.63844">
        <ele>645.66</ele>
        <time>2021-04-08T08:16:25Z</time>
      </trkpt>
      <trkpt lat="45.7626" lon="4.63844">
        <ele>643.26</ele>
        <time>2021-04-08T08:17:38Z</time>
      </trkpt>
      <trkpt lat="45.76255" lon="4.63843">
        <ele>642.78</ele>
        <time>2021-04-08T08:17:52Z</time>
      </trkpt>
      <trkpt lat="45.76248" lon="4.63844">
        <ele>642.78</ele>
        <time>2021-04-08T08:18:01Z</time>
      </trkpt>
      <trkpt lat="45.76208" lon="4.63851">
        <ele>642.3</ele>
        <time>2021-04-08T08:18:09Z</time>
      </trkpt>
      <trkpt lat="45.76198" lon="4.63855">
        <ele>641.34</ele>
        <time>2021-04-08T08:18:11Z</time>
      </trkpt>
      <trkpt lat="45.76173" lon="4.63859">
        <ele>637.49</ele>
        <time>2021-04-08T08:18:16Z</time>
      </trkpt>
      <trkpt lat="45.76168" lon="4.63859">
        <ele>636.53</ele>
        <time>2021-04-08T08:18:17Z</time>
      </trkpt>
      <trkpt lat="45.76157" lon="4.63852">
        <ele>632.2</ele>
        <time>2021-04-08T08:18:20Z</time>
      </trkpt>
      <trkpt lat="45.76153" lon="4.6385">
        <ele>630.76</ele>
        <time>2021-04-08T08:18:21Z</time>
      </trkpt>
      <trkpt lat="45.76129" lon="4.63847">
        <ele>625.96</ele>
        <time>2021-04-08T08:18:26Z</time>
      </trkpt>
      <trkpt lat="45.76127" lon="4.63848">
        <ele>625.47</ele>
        <time>2021-04-08T08:18:27Z</time>
      </trkpt>
      <trkpt lat="45.76123" lon="4.63853">
        <ele>624.51</ele>
        <time>2021-04-08T08:18:31Z</time>
      </trkpt>
      <trkpt lat="45.76113" lon="4.63879">
        <ele>621.63</ele>
        <time>2021-04-08T08:18:41Z</time>
      </trkpt>
      <trkpt lat="45.76107" lon="4.639">
        <ele>619.23</ele>
        <time>2021-04-08T08:18:46Z</time>
      </trkpt>
      <trkpt lat="45.76104" lon="4.63914">
        <ele>616.82</ele>
        <time>2021-04-08T08:18:49Z</time>
      </trkpt>
      <trkpt lat="45.76099" lon="4.6394">
        <ele>612.98</ele>
        <time>2021-04-08T08:18:55Z</time>
      </trkpt>
      <trkpt lat="45.76097" lon="4.63952">
        <ele>611.06</ele>
        <time>2021-04-08T08:18:58Z</time>
      </trkpt>
      <trkpt lat="45.76085" lon="4.63996">
        <ele>606.25</ele>
        <time>2021-04-08T08:19:05Z</time>
      </trkpt>
      <trkpt lat="45.76081" lon="4.64014">
        <ele>602.4</ele>
        <time>2021-04-08T08:19:10Z</time>
      </trkpt>
      <trkpt lat="45.76075" lon="4.64025">
        <ele>600.96</ele>
        <time>2021-04-08T08:19:12Z</time>
      </trkpt>
      <trkpt lat="45.76078" lon="4.64045">
        <ele>599.04</ele>
        <time>2021-04-08T08:19:18Z</time>
      </trkpt>
      <trkpt lat="45.76086" lon="4.64059">
        <ele>597.6</ele>
        <time>2021-04-08T08:19:21Z</time>
      </trkpt>
      <trkpt lat="45.76086" lon="4.64077">
        <ele>595.67</ele>
        <time>2021-04-08T08:19:25Z</time>
      </trkpt>
      <trkpt lat="45.76081" lon="4.64086">
        <ele>592.79</ele>
        <time>2021-04-08T08:19:29Z</time>
      </trkpt>
      <trkpt lat="45.76071" lon="4.64096">
        <ele>590.87</ele>
        <time>2021-04-08T08:19:33Z</time>
      </trkpt>
      <trkpt lat="45.76069" lon="4.64096">
        <ele>590.87</ele>
        <time>2021-04-08T08:19:34Z</time>
      </trkpt>
      <trkpt lat="45.76061" lon="4.64099">
        <ele>590.39</ele>
        <time>2021-04-08T08:19:37Z</time>
      </trkpt>
      <trkpt lat="45.76057" lon="4.64112">
        <ele>586.54</ele>
        <time>2021-04-08T08:19:41Z</time>
      </trkpt>
      <trkpt lat="45.76065" lon="4.64132">
        <ele>583.18</ele>
        <time>2021-04-08T08:19:46Z</time>
      </trkpt>
      <trkpt lat="45.76068" lon="4.64152">
        <ele>579.81</ele>
        <time>2021-04-08T08:19:50Z</time>
      </trkpt>
      <trkpt lat="45.76066" lon="4.64162">
        <ele>577.89</ele>
        <time>2021-04-08T08:19:53Z</time>
      </trkpt>
      <trkpt lat="45.76067" lon="4.64194">
        <ele>574.04</ele>
        <time>2021-04-08T08:20:00Z</time>
      </trkpt>
      <trkpt lat="45.76068" lon="4.64213">
        <ele>571.16</ele>
        <time>2021-04-08T08:20:03Z</time>
      </trkpt>
      <trkpt lat="45.76071" lon="4.64236">
        <ele>567.8</ele>
        <time>2021-04-08T08:20:07Z</time>
      </trkpt>
      <trkpt lat="45.76069" lon="4.64251">
        <ele>562.99</ele>
        <time>2021-04-08T08:20:12Z</time>
      </trkpt>
      <trkpt lat="45.76063" lon="4.64254">
        <ele>560.59</ele>
        <time>2021-04-08T08:20:15Z</time>
      </trkpt>
      <trkpt lat="45.76035" lon="4.64255">
        <ele>556.74</ele>
        <time>2021-04-08T08:20:23Z</time>
      </trkpt>
      <trkpt lat="45.76032" lon="4.64256">
        <ele>555.78</ele>
        <time>2021-04-08T08:20:24Z</time>
      </trkpt>
      <trkpt lat="45.76021" lon="4.64254">
        <ele>553.86</ele>
        <time>2021-04-08T08:20:27Z</time>
      </trkpt>
      <trkpt lat="45.76017" lon="4.64265">
        <ele>549.05</ele>
        <time>2021-04-08T08:20:32Z</time>
      </trkpt>
      <trkpt lat="45.76017" lon="4.6427">
        <ele>548.09</ele>
        <time>2021-04-08T08:20:33Z</time>
      </trkpt>
      <trkpt lat="45.7602" lon="4.64295">
        <ele>545.2</ele>
        <time>2021-04-08T08:20:37Z</time>
      </trkpt>
      <trkpt lat="45.76018" lon="4.64325">
        <ele>540.88</ele>
        <time>2021-04-08T08:20:43Z</time>
      </trkpt>
      <trkpt lat="45.76015" lon="4.64344">
        <ele>537.51</ele>
        <time>2021-04-08T08:20:49Z</time>
      </trkpt>
      <trkpt lat="45.76021" lon="4.64377">
        <ele>534.63</ele>
        <time>2021-04-08T08:20:56Z</time>
      </trkpt>
      <trkpt lat="45.76025" lon="4.64388">
        <ele>532.23</ele>
        <time>2021-04-08T08:20:59Z</time>
      </trkpt>
      <trkpt lat="45.76025" lon="4.64393">
        <ele>528.38</ele>
        <time>2021-04-08T08:21:05Z</time>
      </trkpt>
      <trkpt lat="45.76025" lon="4.64392">
        <ele>526.46</ele>
        <time>2021-04-08T08:21:09Z</time>
      </trkpt>
      <trkpt lat="45.76018" lon="4.64395">
        <ele>525.02</ele>
        <time>2021-04-08T08:21:50Z</time>
      </trkpt>
      <trkpt lat="45.75991" lon="4.64377">
        <ele>525.02</ele>
        <time>2021-04-08T08:21:57Z</time>
      </trkpt>
      <trkpt lat="45.7596" lon="4.64345">
        <ele>521.17</ele>
        <time>2021-04-08T08:22:04Z</time>
      </trkpt>
      <trkpt lat="45.75956" lon="4.64338">
        <ele>520.21</ele>
        <time>2021-04-08T08:22:05Z</time>
      </trkpt>
      <trkpt lat="45.75941" lon="4.64312">
        <ele>518.29</ele>
        <time>2021-04-08T08:22:08Z</time>
      </trkpt>
      <trkpt lat="45.75932" lon="4.64285">
        <ele>516.37</ele>
        <time>2021-04-08T08:22:11Z</time>
      </trkpt>
      <trkpt lat="45.75917" lon="4.64256">
        <ele>511.08</ele>
        <time>2021-04-08T08:22:15Z</time>
      </trkpt>
      <trkpt lat="45.75903" lon="4.64231">
        <ele>509.64</ele>
        <time>2021-04-08T08:22:18Z</time>
      </trkpt>
      <trkpt lat="45.75895" lon="4.64204">
        <ele>508.19</ele>
        <time>2021-04-08T08:22:21Z</time>
      </trkpt>
      <trkpt lat="45.75873" lon="4.64176">
        <ele>504.35</ele>
        <time>2021-04-08T08:22:26Z</time>
      </trkpt>
      <trkpt lat="45.75844" lon="4.64173">
        <ele>503.39</ele>
        <time>2021-04-08T08:22:33Z</time>
      </trkpt>
      <trkpt lat="45.75835" lon="4.64173">
        <ele>503.39</ele>
        <time>2021-04-08T08:22:35Z</time>
      </trkpt>
      <trkpt lat="45.75831" lon="4.64173">
        <ele>503.39</ele>
        <time>2021-04-08T08:22:36Z</time>
      </trkpt>
      <trkpt lat="45.75827" lon="4.64172">
        <ele>503.39</ele>
        <time>2021-04-08T08:22:37Z</time>
      </trkpt>
      <trkpt lat="45.75824" lon="4.64182">
        <ele>503.39</ele>
        <time>2021-04-08T08:22:41Z</time>
      </trkpt>
      <trkpt lat="45.75825" lon="4.64187">
        <ele>503.39</ele>
        <time>2021-04-08T08:22:42Z</time>
      </trkpt>
      <trkpt lat="45.75826" lon="4.64191">
        <ele>503.39</ele>
        <time>2021-04-08T08:22:43Z</time>
      </trkpt>
      <trkpt lat="45.75828" lon="4.64196">
        <ele>503.39</ele>
        <time>2021-04-08T08:22:44Z</time>
      </trkpt>
      <trkpt lat="45.75831" lon="4.64201">
        <ele>502.91</ele>
        <time>2021-04-08T08:22:45Z</time>
      </trkpt>
      <trkpt lat="45.7584" lon="4.64214">
        <ele>502.43</ele>
        <time>2021-04-08T08:22:47Z</time>
      </trkpt>
      <trkpt lat="45.75845" lon="4.64222">
        <ele>502.43</ele>
        <time>2021-04-08T08:22:48Z</time>
      </trkpt>
      <trkpt lat="45.75848" lon="4.64232">
        <ele>501.46</ele>
        <time>2021-04-08T08:22:49Z</time>
      </trkpt>
      <trkpt lat="45.75849" lon="4.64243">
        <ele>500.98</ele>
        <time>2021-04-08T08:22:50Z</time>
      </trkpt>
      <trkpt lat="45.7585" lon="4.64254">
        <ele>500.02</ele>
        <time>2021-04-08T08:22:51Z</time>
      </trkpt>
      <trkpt lat="45.75852" lon="4.64285">
        <ele>497.14</ele>
        <time>2021-04-08T08:22:54Z</time>
      </trkpt>
      <trkpt lat="45.75855" lon="4.64314">
        <ele>492.81</ele>
        <time>2021-04-08T08:22:57Z</time>
      </trkpt>
      <trkpt lat="45.75856" lon="4.64332">
        <ele>488.97</ele>
        <time>2021-04-08T08:22:59Z</time>
      </trkpt>
      <trkpt lat="45.75858" lon="4.64355">
        <ele>485.12</ele>
        <time>2021-04-08T08:23:02Z</time>
      </trkpt>
      <trkpt lat="45.75858" lon="4.64364">
        <ele>483.68</ele>
        <time>2021-04-08T08:23:03Z</time>
      </trkpt>
      <trkpt lat="45.75858" lon="4.64373">
        <ele>482.24</ele>
        <time>2021-04-08T08:23:04Z</time>
      </trkpt>
      <trkpt lat="45.75857" lon="4.64382">
        <ele>481.28</ele>
        <time>2021-04-08T08:23:05Z</time>
      </trkpt>
      <trkpt lat="45.75854" lon="4.6439">
        <ele>480.32</ele>
        <time>2021-04-08T08:23:06Z</time>
      </trkpt>
      <trkpt lat="45.7585" lon="4.64398">
        <ele>479.84</ele>
        <time>2021-04-08T08:23:07Z</time>
      </trkpt>
      <trkpt lat="45.75845" lon="4.64405">
        <ele>478.87</ele>
        <time>2021-04-08T08:23:08Z</time>
      </trkpt>
      <trkpt lat="45.7584" lon="4.64412">
        <ele>477.43</ele>
        <time>2021-04-08T08:23:09Z</time>
      </trkpt>
      <trkpt lat="45.75831" lon="4.64427">
        <ele>476.47</ele>
        <time>2021-04-08T08:23:11Z</time>
      </trkpt>
      <trkpt lat="45.7583" lon="4.64435">
        <ele>475.03</ele>
        <time>2021-04-08T08:23:12Z</time>
      </trkpt>
      <trkpt lat="45.75831" lon="4.64442">
        <ele>474.07</ele>
        <time>2021-04-08T08:23:13Z</time>
      </trkpt>
      <trkpt lat="45.75833" lon="4.6445">
        <ele>473.11</ele>
        <time>2021-04-08T08:23:14Z</time>
      </trkpt>
      <trkpt lat="45.75834" lon="4.64457">
        <ele>472.14</ele>
        <time>2021-04-08T08:23:15Z</time>
      </trkpt>
      <trkpt lat="45.75835" lon="4.64464">
        <ele>471.18</ele>
        <time>2021-04-08T08:23:16Z</time>
      </trkpt>
      <trkpt lat="45.75836" lon="4.64471">
        <ele>470.7</ele>
        <time>2021-04-08T08:23:17Z</time>
      </trkpt>
      <trkpt lat="45.75845" lon="4.64514">
        <ele>468.78</ele>
        <time>2021-04-08T08:23:25Z</time>
      </trkpt>
      <trkpt lat="45.75847" lon="4.6452">
        <ele>468.78</ele>
        <time>2021-04-08T08:23:26Z</time>
      </trkpt>
      <trkpt lat="45.75848" lon="4.64525">
        <ele>468.78</ele>
        <time>2021-04-08T08:23:27Z</time>
      </trkpt>
      <trkpt lat="45.75849" lon="4.64531">
        <ele>468.78</ele>
        <time>2021-04-08T08:23:28Z</time>
      </trkpt>
      <trkpt lat="45.7585" lon="4.64536">
        <ele>468.78</ele>
        <time>2021-04-08T08:23:29Z</time>
      </trkpt>
      <trkpt lat="45.75858" lon="4.64568">
        <ele>469.74</ele>
        <time>2021-04-08T08:23:37Z</time>
      </trkpt>
      <trkpt lat="45.75859" lon="4.64572">
        <ele>470.22</ele>
        <time>2021-04-08T08:23:38Z</time>
      </trkpt>
      <trkpt lat="45.7586" lon="4.64576">
        <ele>470.22</ele>
        <time>2021-04-08T08:23:39Z</time>
      </trkpt>
      <trkpt lat="45.75861" lon="4.64579">
        <ele>470.22</ele>
        <time>2021-04-08T08:23:40Z</time>
      </trkpt>
      <trkpt lat="45.75862" lon="4.64582">
        <ele>471.18</ele>
        <time>2021-04-08T08:23:41Z</time>
      </trkpt>
      <trkpt lat="45.75863" lon="4.64585">
        <ele>471.18</ele>
        <time>2021-04-08T08:23:42Z</time>
      </trkpt>
      <trkpt lat="45.75864" lon="4.6459">
        <ele>471.66</ele>
        <time>2021-04-08T08:23:43Z</time>
      </trkpt>
      <trkpt lat="45.75866" lon="4.64597">
        <ele>472.63</ele>
        <time>2021-04-08T08:23:45Z</time>
      </trkpt>
      <trkpt lat="45.75866" lon="4.646">
        <ele>472.63</ele>
        <time>2021-04-08T08:23:46Z</time>
      </trkpt>
      <trkpt lat="45.75868" lon="4.64602">
        <ele>472.63</ele>
        <time>2021-04-08T08:23:47Z</time>
      </trkpt>
      <trkpt lat="45.75869" lon="4.64605">
        <ele>473.11</ele>
        <time>2021-04-08T08:23:48Z</time>
      </trkpt>
      <trkpt lat="45.75871" lon="4.64608">
        <ele>473.11</ele>
        <time>2021-04-08T08:23:49Z</time>
      </trkpt>
      <trkpt lat="45.75872" lon="4.64612">
        <ele>473.59</ele>
        <time>2021-04-08T08:23:50Z</time>
      </trkpt>
      <trkpt lat="45.75881" lon="4.64666">
        <ele>475.99</ele>
        <time>2021-04-08T08:24:02Z</time>
      </trkpt>
      <trkpt lat="45.75888" lon="4.64711">
        <ele>476.47</ele>
        <time>2021-04-08T08:24:12Z</time>
      </trkpt>
      <trkpt lat="45.75892" lon="4.64763">
        <ele>477.43</ele>
        <time>2021-04-08T08:24:24Z</time>
      </trkpt>
      <trkpt lat="45.75888" lon="4.6481">
        <ele>477.91</ele>
        <time>2021-04-08T08:24:35Z</time>
      </trkpt>
      <trkpt lat="45.75885" lon="4.64832">
        <ele>478.39</ele>
        <time>2021-04-08T08:24:40Z</time>
      </trkpt>
      <trkpt lat="45.75883" lon="4.64838">
        <ele>478.39</ele>
        <time>2021-04-08T08:24:41Z</time>
      </trkpt>
      <trkpt lat="45.75882" lon="4.64843">
        <ele>478.87</ele>
        <time>2021-04-08T08:24:42Z</time>
      </trkpt>
      <trkpt lat="45.7588" lon="4.64848">
        <ele>478.87</ele>
        <time>2021-04-08T08:24:43Z</time>
      </trkpt>
      <trkpt lat="45.75879" lon="4.64853">
        <ele>478.87</ele>
        <time>2021-04-08T08:24:44Z</time>
      </trkpt>
      <trkpt lat="45.75877" lon="4.64858">
        <ele>479.35</ele>
        <time>2021-04-08T08:24:45Z</time>
      </trkpt>
      <trkpt lat="45.75875" lon="4.64864">
        <ele>479.35</ele>
        <time>2021-04-08T08:24:46Z</time>
      </trkpt>
      <trkpt lat="45.75871" lon="4.64874">
        <ele>479.84</ele>
        <time>2021-04-08T08:24:48Z</time>
      </trkpt>
      <trkpt lat="45.75868" lon="4.64879">
        <ele>479.84</ele>
        <time>2021-04-08T08:24:49Z</time>
      </trkpt>
      <trkpt lat="45.75858" lon="4.64893">
        <ele>479.84</ele>
        <time>2021-04-08T08:24:52Z</time>
      </trkpt>
      <trkpt lat="45.75853" lon="4.64898">
        <ele>479.84</ele>
        <time>2021-04-08T08:24:53Z</time>
      </trkpt>
      <trkpt lat="45.75831" lon="4.64912">
        <ele>478.87</ele>
        <time>2021-04-08T08:24:58Z</time>
      </trkpt>
      <trkpt lat="45.75808" lon="4.64919">
        <ele>477.91</ele>
        <time>2021-04-08T08:25:02Z</time>
      </trkpt>
      <trkpt lat="45.75802" lon="4.64923">
        <ele>477.91</ele>
        <time>2021-04-08T08:25:03Z</time>
      </trkpt>
      <trkpt lat="45.75786" lon="4.64931">
        <ele>477.43</ele>
        <time>2021-04-08T08:25:06Z</time>
      </trkpt>
      <trkpt lat="45.75767" lon="4.64965">
        <ele>475.03</ele>
        <time>2021-04-08T08:25:11Z</time>
      </trkpt>
      <trkpt lat="45.75754" lon="4.65043">
        <ele>471.66</ele>
        <time>2021-04-08T08:25:18Z</time>
      </trkpt>
      <trkpt lat="45.75751" lon="4.65064">
        <ele>468.3</ele>
        <time>2021-04-08T08:25:20Z</time>
      </trkpt>
      <trkpt lat="45.75746" lon="4.65102">
        <ele>464.93</ele>
        <time>2021-04-08T08:25:24Z</time>
      </trkpt>
      <trkpt lat="45.75737" lon="4.65149">
        <ele>462.05</ele>
        <time>2021-04-08T08:25:31Z</time>
      </trkpt>
      <trkpt lat="45.75731" lon="4.65167">
        <ele>462.05</ele>
        <time>2021-04-08T08:25:34Z</time>
      </trkpt>
      <trkpt lat="45.75728" lon="4.65197">
        <ele>462.05</ele>
        <time>2021-04-08T08:25:39Z</time>
      </trkpt>
      <trkpt lat="45.75729" lon="4.65211">
        <ele>462.05</ele>
        <time>2021-04-08T08:25:41Z</time>
      </trkpt>
      <trkpt lat="45.7573" lon="4.6522">
        <ele>462.05</ele>
        <time>2021-04-08T08:25:42Z</time>
      </trkpt>
      <trkpt lat="45.75732" lon="4.65229">
        <ele>462.05</ele>
        <time>2021-04-08T08:25:43Z</time>
      </trkpt>
      <trkpt lat="45.75756" lon="4.65335">
        <ele>458.69</ele>
        <time>2021-04-08T08:25:52Z</time>
      </trkpt>
      <trkpt lat="45.75761" lon="4.65361">
        <ele>456.28</ele>
        <time>2021-04-08T08:25:54Z</time>
      </trkpt>
      <trkpt lat="45.75763" lon="4.65375">
        <ele>454.84</ele>
        <time>2021-04-08T08:25:55Z</time>
      </trkpt>
      <trkpt lat="45.75765" lon="4.65405">
        <ele>452.44</ele>
        <time>2021-04-08T08:25:57Z</time>
      </trkpt>
      <trkpt lat="45.75764" lon="4.65449">
        <ele>449.55</ele>
        <time>2021-04-08T08:26:00Z</time>
      </trkpt>
      <trkpt lat="45.75762" lon="4.65495">
        <ele>445.71</ele>
        <time>2021-04-08T08:26:03Z</time>
      </trkpt>
      <trkpt lat="45.75759" lon="4.65541">
        <ele>441.38</ele>
        <time>2021-04-08T08:26:06Z</time>
      </trkpt>
      <trkpt lat="45.75759" lon="4.65574">
        <ele>438.98</ele>
        <time>2021-04-08T08:26:08Z</time>
      </trkpt>
      <trkpt lat="45.75758" lon="4.65623">
        <ele>432.25</ele>
        <time>2021-04-08T08:26:11Z</time>
      </trkpt>
      <trkpt lat="45.75755" lon="4.65652">
        <ele>428.4</ele>
        <time>2021-04-08T08:26:13Z</time>
      </trkpt>
      <trkpt lat="45.7575" lon="4.65683">
        <ele>423.6</ele>
        <time>2021-04-08T08:26:15Z</time>
      </trkpt>
      <trkpt lat="45.75743" lon="4.65714">
        <ele>417.83</ele>
        <time>2021-04-08T08:26:17Z</time>
      </trkpt>
      <trkpt lat="45.75736" lon="4.65746">
        <ele>413.02</ele>
        <time>2021-04-08T08:26:19Z</time>
      </trkpt>
      <trkpt lat="45.7573" lon="4.6577">
        <ele>409.18</ele>
        <time>2021-04-08T08:26:21Z</time>
      </trkpt>
      <trkpt lat="45.75726" lon="4.65785">
        <ele>405.81</ele>
        <time>2021-04-08T08:26:23Z</time>
      </trkpt>
      <trkpt lat="45.75725" lon="4.6579">
        <ele>404.37</ele>
        <time>2021-04-08T08:26:24Z</time>
      </trkpt>
      <trkpt lat="45.75722" lon="4.65794">
        <ele>401.97</ele>
        <time>2021-04-08T08:26:25Z</time>
      </trkpt>
      <trkpt lat="45.75718" lon="4.65796">
        <ele>400.05</ele>
        <time>2021-04-08T08:26:26Z</time>
      </trkpt>
      <trkpt lat="45.75713" lon="4.65797">
        <ele>399.08</ele>
        <time>2021-04-08T08:26:27Z</time>
      </trkpt>
      <trkpt lat="45.75645" lon="4.65824">
        <ele>396.2</ele>
        <time>2021-04-08T08:26:38Z</time>
      </trkpt>
      <trkpt lat="45.75639" lon="4.65827">
        <ele>395.24</ele>
        <time>2021-04-08T08:26:39Z</time>
      </trkpt>
      <trkpt lat="45.75605" lon="4.6585">
        <ele>391.39</ele>
        <time>2021-04-08T08:26:45Z</time>
      </trkpt>
      <trkpt lat="45.75571" lon="4.65896">
        <ele>388.03</ele>
        <time>2021-04-08T08:26:52Z</time>
      </trkpt>
      <trkpt lat="45.75541" lon="4.65936">
        <ele>384.18</ele>
        <time>2021-04-08T08:26:58Z</time>
      </trkpt>
      <trkpt lat="45.75535" lon="4.65943">
        <ele>383.22</ele>
        <time>2021-04-08T08:26:59Z</time>
      </trkpt>
      <trkpt lat="45.75509" lon="4.65961">
        <ele>379.38</ele>
        <time>2021-04-08T08:27:04Z</time>
      </trkpt>
      <trkpt lat="45.75508" lon="4.65962">
        <ele>376.01</ele>
        <time>2021-04-08T08:27:06Z</time>
      </trkpt>
      <trkpt lat="45.75507" lon="4.65963">
        <ele>374.57</ele>
        <time>2021-04-08T08:27:08Z</time>
      </trkpt>
    </trkseg>
  </trk>
</gpx>